sensor_id;sensor_type;location;lat;lon;timestamp;P1;durP1;ratioP1;P2;durP2;ratioP2
77109;SDS011;66062;52.464;16.922;2023-06-22T00:00:52;22.85;;;17.52;;
77109;SDS011;66062;52.464;16.922;2023-06-22T00:03:19;22.52;;;18.15;;
77109;SDS011;66062;52.464;16.922;2023-06-22T00:05:46;20.25;;;15.95;;
77109;SDS011;66062;52.464;16.922;2023-06-22T00:08:13;21.23;;;16.00;;
77109;SDS011;66062;52.464;16.922;2023-06-22T00:10:38;21.08;;;16.05;;
77109;SDS011;66062;52.464;16.922;2023-06-22T00:13:04;24.58;;;17.38;;
77109;SDS011;66062;52.464;16.922;2023-06-22T00:15:31;22.52;;;17.40;;
77109;SDS011;66062;52.464;16.922;2023-06-22T00:17:56;22.55;;;17.30;;
77109;SDS011;66062;52.464;16.922;2023-06-22T00:20:22;23.73;;;17.95;;
77109;SDS011;66062;52.464;16.922;2023-06-22T00:22:48;21.98;;;17.83;;
77109;SDS011;66062;52.464;16.922;2023-06-22T00:25:13;23.65;;;18.70;;
77109;SDS011;66062;52.464;16.922;2023-06-22T00:27:39;24.50;;;18.38;;
77109;SDS011;66062;52.464;16.922;2023-06-22T00:30:04;21.17;;;17.00;;
77109;SDS011;66062;52.464;16.922;2023-06-22T00:32:30;22.05;;;18.10;;
77109;SDS011;66062;52.464;16.922;2023-06-22T00:34:55;23.45;;;18.02;;
77109;SDS011;66062;52.464;16.922;2023-06-22T00:37:21;23.60;;;16.50;;
77109;SDS011;66062;52.464;16.922;2023-06-22T00:39:50;25.33;;;18.95;;
77109;SDS011;66062;52.464;16.922;2023-06-22T00:42:16;23.75;;;17.88;;
77109;SDS011;66062;52.464;16.922;2023-06-22T00:44:42;22.23;;;16.42;;
77109;SDS011;66062;52.464;16.922;2023-06-22T00:47:07;22.85;;;17.17;;
77109;SDS011;66062;52.464;16.922;2023-06-22T00:49:33;20.38;;;16.88;;
77109;SDS011;66062;52.464;16.922;2023-06-22T00:51:58;22.17;;;17.63;;
77109;SDS011;66062;52.464;16.922;2023-06-22T00:54:24;19.75;;;16.17;;
77109;SDS011;66062;52.464;16.922;2023-06-22T00:56:53;24.65;;;18.05;;
77109;SDS011;66062;52.464;16.922;2023-06-22T00:59:21;21.23;;;17.48;;
77109;SDS011;66062;52.464;16.922;2023-06-22T01:01:48;20.80;;;17.95;;
77109;SDS011;66062;52.464;16.922;2023-06-22T01:04:13;21.83;;;15.77;;
77109;SDS011;66062;52.464;16.922;2023-06-22T01:06:41;24.88;;;17.40;;
77109;SDS011;66062;52.464;16.922;2023-06-22T01:09:15;23.92;;;18.30;;
77109;SDS011;66062;52.464;16.922;2023-06-22T01:12:08;22.75;;;17.85;;
77109;SDS011;66062;52.464;16.922;2023-06-22T01:14:38;22.85;;;16.88;;
77109;SDS011;66062;52.464;16.922;2023-06-22T01:17:08;23.77;;;19.65;;
77109;SDS011;66062;52.464;16.922;2023-06-22T01:22:22;21.73;;;17.02;;
77109;SDS011;66062;52.464;16.922;2023-06-22T01:30:28;22.52;;;18.48;;
77109;SDS011;66062;52.464;16.922;2023-06-22T01:32:57;25.42;;;18.80;;
77109;SDS011;66062;52.464;16.922;2023-06-22T01:35:24;24.75;;;19.15;;
77109;SDS011;66062;52.464;16.922;2023-06-22T01:37:50;21.98;;;19.30;;
77109;SDS011;66062;52.464;16.922;2023-06-22T01:40:16;24.70;;;19.40;;
77109;SDS011;66062;52.464;16.922;2023-06-22T01:42:43;24.23;;;18.92;;
77109;SDS011;66062;52.464;16.922;2023-06-22T01:45:10;28.08;;;20.48;;
77109;SDS011;66062;52.464;16.922;2023-06-22T01:50:02;21.98;;;17.58;;
77109;SDS011;66062;52.464;16.922;2023-06-22T01:52:28;22.70;;;18.77;;
77109;SDS011;66062;52.464;16.922;2023-06-22T01:54:53;22.98;;;17.70;;
77109;SDS011;66062;52.464;16.922;2023-06-22T01:57:19;24.02;;;19.20;;
77109;SDS011;66062;52.464;16.922;2023-06-22T02:02:39;25.35;;;18.52;;
77109;SDS011;66062;52.464;16.922;2023-06-22T02:05:16;26.45;;;19.30;;
77109;SDS011;66062;52.464;16.922;2023-06-22T02:07:49;23.55;;;19.52;;
77109;SDS011;66062;52.464;16.922;2023-06-22T02:10:25;24.50;;;20.42;;
77109;SDS011;66062;52.464;16.922;2023-06-22T02:12:53;24.98;;;19.73;;
77109;SDS011;66062;52.464;16.922;2023-06-22T02:15:19;25.85;;;18.67;;
77109;SDS011;66062;52.464;16.922;2023-06-22T02:17:46;26.23;;;19.70;;
77109;SDS011;66062;52.464;16.922;2023-06-22T02:20:13;23.65;;;19.52;;
77109;SDS011;66062;52.464;16.922;2023-06-22T02:22:39;26.88;;;18.83;;
77109;SDS011;66062;52.464;16.922;2023-06-22T02:25:05;24.23;;;18.20;;
77109;SDS011;66062;52.464;16.922;2023-06-22T02:27:30;19.23;;;16.15;;
77109;SDS011;66062;52.464;16.922;2023-06-22T02:29:56;20.30;;;16.33;;
77109;SDS011;66062;52.464;16.922;2023-06-22T02:32:22;17.02;;;13.23;;
77109;SDS011;66062;52.464;16.922;2023-06-22T02:34:47;13.95;;;11.93;;
77109;SDS011;66062;52.464;16.922;2023-06-22T02:37:13;13.75;;;11.05;;
77109;SDS011;66062;52.464;16.922;2023-06-22T02:39:40;14.45;;;11.25;;
77109;SDS011;66062;52.464;16.922;2023-06-22T02:42:05;16.23;;;10.82;;
77109;SDS011;66062;52.464;16.922;2023-06-22T02:44:31;13.02;;;9.95;;
77109;SDS011;66062;52.464;16.922;2023-06-22T02:46:56;11.48;;;9.60;;
77109;SDS011;66062;52.464;16.922;2023-06-22T02:49:22;12.05;;;8.88;;
77109;SDS011;66062;52.464;16.922;2023-06-22T02:51:48;11.43;;;8.23;;
77109;SDS011;66062;52.464;16.922;2023-06-22T02:54:14;10.00;;;8.00;;
77109;SDS011;66062;52.464;16.922;2023-06-22T02:56:39;11.60;;;7.82;;
77109;SDS011;66062;52.464;16.922;2023-06-22T02:59:06;11.75;;;8.05;;
77109;SDS011;66062;52.464;16.922;2023-06-22T03:01:31;10.25;;;7.40;;
77109;SDS011;66062;52.464;16.922;2023-06-22T03:04:03;8.90;;;7.75;;
77109;SDS011;66062;52.464;16.922;2023-06-22T03:06:29;14.05;;;8.38;;
77109;SDS011;66062;52.464;16.922;2023-06-22T03:09:04;10.35;;;8.30;;
77109;SDS011;66062;52.464;16.922;2023-06-22T03:11:33;13.80;;;10.50;;
77109;SDS011;66062;52.464;16.922;2023-06-22T03:13:59;14.82;;;9.35;;
77109;SDS011;66062;52.464;16.922;2023-06-22T03:18:51;11.57;;;8.63;;
77109;SDS011;66062;52.464;16.922;2023-06-22T03:21:18;11.23;;;8.45;;
77109;SDS011;66062;52.464;16.922;2023-06-22T03:23:44;11.20;;;8.27;;
77109;SDS011;66062;52.464;16.922;2023-06-22T03:26:09;11.32;;;8.98;;
77109;SDS011;66062;52.464;16.922;2023-06-22T03:28:35;9.23;;;8.00;;
77109;SDS011;66062;52.464;16.922;2023-06-22T03:31:02;14.55;;;9.73;;
77109;SDS011;66062;52.464;16.922;2023-06-22T03:33:29;10.55;;;8.65;;
77109;SDS011;66062;52.464;16.922;2023-06-22T03:35:54;12.00;;;8.57;;
77109;SDS011;66062;52.464;16.922;2023-06-22T03:38:20;10.00;;;8.73;;
77109;SDS011;66062;52.464;16.922;2023-06-22T03:40:45;10.85;;;8.10;;
77109;SDS011;66062;52.464;16.922;2023-06-22T03:43:11;33.60;;;24.00;;
77109;SDS011;66062;52.464;16.922;2023-06-22T03:45:36;11.15;;;10.00;;
77109;SDS011;66062;52.464;16.922;2023-06-22T03:48:02;9.93;;;7.82;;
77109;SDS011;66062;52.464;16.922;2023-06-22T03:50:27;13.18;;;9.35;;
77109;SDS011;66062;52.464;16.922;2023-06-22T03:52:53;12.57;;;9.85;;
77109;SDS011;66062;52.464;16.922;2023-06-22T03:55:21;14.35;;;10.85;;
77109;SDS011;66062;52.464;16.922;2023-06-22T03:57:47;12.85;;;10.18;;
77109;SDS011;66062;52.464;16.922;2023-06-22T04:00:13;12.50;;;9.82;;
77109;SDS011;66062;52.464;16.922;2023-06-22T04:02:40;14.82;;;9.77;;
77109;SDS011;66062;52.464;16.922;2023-06-22T04:05:06;13.73;;;10.07;;
77109;SDS011;66062;52.464;16.922;2023-06-22T04:09:58;11.80;;;9.80;;
77109;SDS011;66062;52.464;16.922;2023-06-22T04:12:24;16.48;;;10.57;;
77109;SDS011;66062;52.464;16.922;2023-06-22T04:14:49;12.32;;;8.60;;
77109;SDS011;66062;52.464;16.922;2023-06-22T04:17:14;10.40;;;8.38;;
77109;SDS011;66062;52.464;16.922;2023-06-22T04:19:40;12.02;;;8.80;;
77109;SDS011;66062;52.464;16.922;2023-06-22T04:22:06;10.07;;;8.00;;
77109;SDS011;66062;52.464;16.922;2023-06-22T04:24:32;14.32;;;7.70;;
77109;SDS011;66062;52.464;16.922;2023-06-22T04:26:58;11.80;;;8.32;;
77109;SDS011;66062;52.464;16.922;2023-06-22T04:29:28;11.88;;;8.52;;
77109;SDS011;66062;52.464;16.922;2023-06-22T04:31:55;13.48;;;7.50;;
77109;SDS011;66062;52.464;16.922;2023-06-22T04:34:23;10.20;;;7.57;;
77109;SDS011;66062;52.464;16.922;2023-06-22T04:36:52;12.73;;;8.30;;
77109;SDS011;66062;52.464;16.922;2023-06-22T04:39:18;11.38;;;7.80;;
77109;SDS011;66062;52.464;16.922;2023-06-22T04:41:44;13.30;;;7.32;;
77109;SDS011;66062;52.464;16.922;2023-06-22T04:44:13;9.90;;;7.63;;
77109;SDS011;66062;52.464;16.922;2023-06-22T04:49:29;12.63;;;7.50;;
77109;SDS011;66062;52.464;16.922;2023-06-22T04:52:00;10.75;;;7.13;;
77109;SDS011;66062;52.464;16.922;2023-06-22T04:54:26;12.40;;;7.30;;
77109;SDS011;66062;52.464;16.922;2023-06-22T04:56:51;10.90;;;6.47;;
77109;SDS011;66062;52.464;16.922;2023-06-22T04:59:25;9.52;;;6.75;;
77109;SDS011;66062;52.464;16.922;2023-06-22T05:01:58;14.43;;;6.85;;
77109;SDS011;66062;52.464;16.922;2023-06-22T05:04:25;11.70;;;6.57;;
77109;SDS011;66062;52.464;16.922;2023-06-22T05:06:52;11.30;;;6.43;;
77109;SDS011;66062;52.464;16.922;2023-06-22T05:09:18;9.82;;;5.32;;
77109;SDS011;66062;52.464;16.922;2023-06-22T05:11:44;9.55;;;5.60;;
77109;SDS011;66062;52.464;16.922;2023-06-22T05:14:10;11.73;;;5.47;;
77109;SDS011;66062;52.464;16.922;2023-06-22T05:16:36;9.82;;;5.68;;
77109;SDS011;66062;52.464;16.922;2023-06-22T05:19:02;9.70;;;6.28;;
77109;SDS011;66062;52.464;16.922;2023-06-22T05:21:28;10.07;;;6.53;;
77109;SDS011;66062;52.464;16.922;2023-06-22T05:23:54;11.02;;;6.20;;
77109;SDS011;66062;52.464;16.922;2023-06-22T05:26:21;12.55;;;5.22;;
77109;SDS011;66062;52.464;16.922;2023-06-22T05:28:47;9.05;;;5.18;;
77109;SDS011;66062;52.464;16.922;2023-06-22T05:31:13;6.47;;;4.85;;
77109;SDS011;66062;52.464;16.922;2023-06-22T05:33:40;8.57;;;5.32;;
77109;SDS011;66062;52.464;16.922;2023-06-22T05:36:06;13.68;;;5.03;;
77109;SDS011;66062;52.464;16.922;2023-06-22T05:38:32;11.98;;;5.53;;
77109;SDS011;66062;52.464;16.922;2023-06-22T05:40:57;11.65;;;4.95;;
77109;SDS011;66062;52.464;16.922;2023-06-22T05:43:23;9.95;;;4.90;;
77109;SDS011;66062;52.464;16.922;2023-06-22T05:45:48;11.35;;;5.10;;
77109;SDS011;66062;52.464;16.922;2023-06-22T05:48:13;12.32;;;5.10;;
77109;SDS011;66062;52.464;16.922;2023-06-22T05:50:39;10.02;;;5.30;;
77109;SDS011;66062;52.464;16.922;2023-06-22T05:53:04;9.05;;;4.88;;
77109;SDS011;66062;52.464;16.922;2023-06-22T05:55:31;8.65;;;4.70;;
77109;SDS011;66062;52.464;16.922;2023-06-22T05:57:57;8.35;;;4.80;;
77109;SDS011;66062;52.464;16.922;2023-06-22T06:00:23;7.78;;;4.63;;
77109;SDS011;66062;52.464;16.922;2023-06-22T06:02:49;7.47;;;4.72;;
77109;SDS011;66062;52.464;16.922;2023-06-22T06:05:14;7.60;;;4.13;;
77109;SDS011;66062;52.464;16.922;2023-06-22T06:07:40;9.65;;;3.83;;
77109;SDS011;66062;52.464;16.922;2023-06-22T06:10:07;8.68;;;4.50;;
77109;SDS011;66062;52.464;16.922;2023-06-22T06:12:32;8.80;;;3.97;;
77109;SDS011;66062;52.464;16.922;2023-06-22T06:14:58;5.35;;;3.55;;
77109;SDS011;66062;52.464;16.922;2023-06-22T06:17:23;8.65;;;4.22;;
77109;SDS011;66062;52.464;16.922;2023-06-22T06:19:49;10.40;;;4.35;;
77109;SDS011;66062;52.464;16.922;2023-06-22T06:22:14;9.77;;;4.18;;
77109;SDS011;66062;52.464;16.922;2023-06-22T06:24:40;6.70;;;4.03;;
77109;SDS011;66062;52.464;16.922;2023-06-22T06:27:05;7.13;;;4.55;;
77109;SDS011;66062;52.464;16.922;2023-06-22T06:29:31;10.23;;;3.95;;
77109;SDS011;66062;52.464;16.922;2023-06-22T06:31:57;8.90;;;3.75;;
77109;SDS011;66062;52.464;16.922;2023-06-22T06:34:22;8.20;;;3.67;;
77109;SDS011;66062;52.464;16.922;2023-06-22T06:36:48;8.95;;;3.63;;
77109;SDS011;66062;52.464;16.922;2023-06-22T06:39:13;9.45;;;3.58;;
77109;SDS011;66062;52.464;16.922;2023-06-22T06:41:39;8.07;;;3.33;;
77109;SDS011;66062;52.464;16.922;2023-06-22T06:44:04;6.40;;;2.67;;
77109;SDS011;66062;52.464;16.922;2023-06-22T06:46:29;5.55;;;2.17;;
77109;SDS011;66062;52.464;16.922;2023-06-22T06:48:55;6.10;;;2.75;;
77109;SDS011;66062;52.464;16.922;2023-06-22T06:51:21;6.22;;;3.10;;
77109;SDS011;66062;52.464;16.922;2023-06-22T06:53:47;7.18;;;2.80;;
77109;SDS011;66062;52.464;16.922;2023-06-22T06:56:12;8.45;;;2.70;;
77109;SDS011;66062;52.464;16.922;2023-06-22T06:58:40;4.28;;;2.72;;
77109;SDS011;66062;52.464;16.922;2023-06-22T07:01:07;6.65;;;2.20;;
77109;SDS011;66062;52.464;16.922;2023-06-22T07:03:33;5.18;;;3.78;;
77109;SDS011;66062;52.464;16.922;2023-06-22T07:05:58;5.65;;;3.05;;
77109;SDS011;66062;52.464;16.922;2023-06-22T07:08:24;4.63;;;2.40;;
77109;SDS011;66062;52.464;16.922;2023-06-22T07:10:50;5.45;;;2.42;;
77109;SDS011;66062;52.464;16.922;2023-06-22T07:13:17;4.78;;;3.25;;
77109;SDS011;66062;52.464;16.922;2023-06-22T07:15:42;7.73;;;2.80;;
77109;SDS011;66062;52.464;16.922;2023-06-22T07:18:07;3.78;;;2.40;;
77109;SDS011;66062;52.464;16.922;2023-06-22T07:20:33;4.85;;;2.42;;
77109;SDS011;66062;52.464;16.922;2023-06-22T07:22:58;4.80;;;2.25;;
77109;SDS011;66062;52.464;16.922;2023-06-22T07:25:23;4.30;;;1.92;;
77109;SDS011;66062;52.464;16.922;2023-06-22T07:30:24;6.55;;;2.53;;
77109;SDS011;66062;52.464;16.922;2023-06-22T07:32:50;3.95;;;2.25;;
77109;SDS011;66062;52.464;16.922;2023-06-22T07:35:16;7.00;;;2.90;;
77109;SDS011;66062;52.464;16.922;2023-06-22T07:37:41;3.92;;;2.55;;
77109;SDS011;66062;52.464;16.922;2023-06-22T07:40:07;6.60;;;2.63;;
77109;SDS011;66062;52.464;16.922;2023-06-22T07:42:34;5.20;;;2.90;;
77109;SDS011;66062;52.464;16.922;2023-06-22T07:45:00;4.85;;;2.47;;
77109;SDS011;66062;52.464;16.922;2023-06-22T07:47:26;4.72;;;2.25;;
77109;SDS011;66062;52.464;16.922;2023-06-22T07:49:53;4.57;;;2.50;;
77109;SDS011;66062;52.464;16.922;2023-06-22T07:52:26;4.72;;;2.60;;
77109;SDS011;66062;52.464;16.922;2023-06-22T07:54:51;3.58;;;2.55;;
77109;SDS011;66062;52.464;16.922;2023-06-22T07:57:17;12.80;;;7.63;;
77109;SDS011;66062;52.464;16.922;2023-06-22T07:59:43;6.97;;;2.53;;
77109;SDS011;66062;52.464;16.922;2023-06-22T08:02:09;4.15;;;2.28;;
77109;SDS011;66062;52.464;16.922;2023-06-22T08:04:34;6.05;;;2.15;;
77109;SDS011;66062;52.464;16.922;2023-06-22T08:07:00;5.68;;;3.33;;
77109;SDS011;66062;52.464;16.922;2023-06-22T08:09:30;6.03;;;2.22;;
77109;SDS011;66062;52.464;16.922;2023-06-22T08:11:56;5.50;;;3.95;;
77109;SDS011;66062;52.464;16.922;2023-06-22T08:14:31;3.55;;;2.42;;
77109;SDS011;66062;52.464;16.922;2023-06-22T08:16:56;4.25;;;2.70;;
77109;SDS011;66062;52.464;16.922;2023-06-22T08:19:21;5.18;;;3.13;;
77109;SDS011;66062;52.464;16.922;2023-06-22T08:21:47;6.38;;;3.15;;
77109;SDS011;66062;52.464;16.922;2023-06-22T08:24:12;5.53;;;2.85;;
77109;SDS011;66062;52.464;16.922;2023-06-22T08:29:03;3.97;;;2.13;;
77109;SDS011;66062;52.464;16.922;2023-06-22T08:31:30;4.03;;;2.50;;
77109;SDS011;66062;52.464;16.922;2023-06-22T08:33:59;5.07;;;2.67;;
77109;SDS011;66062;52.464;16.922;2023-06-22T08:36:24;5.50;;;2.72;;
77109;SDS011;66062;52.464;16.922;2023-06-22T08:38:50;3.70;;;2.03;;
77109;SDS011;66062;52.464;16.922;2023-06-22T08:41:19;7.03;;;2.22;;
77109;SDS011;66062;52.464;16.922;2023-06-22T08:43:44;3.38;;;2.30;;
77109;SDS011;66062;52.464;16.922;2023-06-22T08:46:10;3.95;;;2.20;;
77109;SDS011;66062;52.464;16.922;2023-06-22T08:51:01;5.75;;;2.25;;
77109;SDS011;66062;52.464;16.922;2023-06-22T08:53:28;5.07;;;2.33;;
77109;SDS011;66062;52.464;16.922;2023-06-22T08:55:54;3.85;;;2.10;;
77109;SDS011;66062;52.464;16.922;2023-06-22T08:58:19;6.28;;;3.33;;
77109;SDS011;66062;52.464;16.922;2023-06-22T09:00:46;3.95;;;2.22;;
77109;SDS011;66062;52.464;16.922;2023-06-22T09:03:11;4.47;;;1.85;;
77109;SDS011;66062;52.464;16.922;2023-06-22T09:05:37;4.10;;;2.10;;
77109;SDS011;66062;52.464;16.922;2023-06-22T09:08:02;5.38;;;1.85;;
77109;SDS011;66062;52.464;16.922;2023-06-22T09:10:28;3.67;;;2.20;;
77109;SDS011;66062;52.464;16.922;2023-06-22T09:12:53;4.50;;;2.03;;
77109;SDS011;66062;52.464;16.922;2023-06-22T09:15:19;3.10;;;1.88;;
77109;SDS011;66062;52.464;16.922;2023-06-22T09:17:44;3.08;;;1.92;;
77109;SDS011;66062;52.464;16.922;2023-06-22T09:20:11;2.97;;;2.00;;
77109;SDS011;66062;52.464;16.922;2023-06-22T09:22:37;3.20;;;1.90;;
77109;SDS011;66062;52.464;16.922;2023-06-22T09:25:02;3.53;;;2.35;;
77109;SDS011;66062;52.464;16.922;2023-06-22T09:27:28;3.45;;;1.95;;
77109;SDS011;66062;52.464;16.922;2023-06-22T09:29:54;2.60;;;1.80;;
77109;SDS011;66062;52.464;16.922;2023-06-22T09:32:19;3.53;;;1.70;;
77109;SDS011;66062;52.464;16.922;2023-06-22T09:34:45;3.95;;;2.97;;
77109;SDS011;66062;52.464;16.922;2023-06-22T09:37:10;3.50;;;2.00;;
77109;SDS011;66062;52.464;16.922;2023-06-22T09:39:35;3.78;;;1.27;;
77109;SDS011;66062;52.464;16.922;2023-06-22T09:42:01;5.10;;;1.88;;
77109;SDS011;66062;52.464;16.922;2023-06-22T09:44:27;2.90;;;1.88;;
77109;SDS011;66062;52.464;16.922;2023-06-22T09:46:52;3.65;;;1.67;;
77109;SDS011;66062;52.464;16.922;2023-06-22T09:49:18;3.45;;;1.85;;
77109;SDS011;66062;52.464;16.922;2023-06-22T09:51:43;4.22;;;2.03;;
77109;SDS011;66062;52.464;16.922;2023-06-22T09:56:34;2.93;;;2.17;;
77109;SDS011;66062;52.464;16.922;2023-06-22T10:01:25;3.83;;;1.97;;
77109;SDS011;66062;52.464;16.922;2023-06-22T10:06:19;3.38;;;1.80;;
77109;SDS011;66062;52.464;16.922;2023-06-22T10:08:45;4.68;;;1.75;;
77109;SDS011;66062;52.464;16.922;2023-06-22T10:11:10;2.50;;;1.65;;
77109;SDS011;66062;52.464;16.922;2023-06-22T10:13:35;4.50;;;2.08;;
77109;SDS011;66062;52.464;16.922;2023-06-22T10:16:01;5.72;;;2.28;;
77109;SDS011;66062;52.464;16.922;2023-06-22T10:18:26;4.13;;;2.45;;
77109;SDS011;66062;52.464;16.922;2023-06-22T10:20:52;4.57;;;1.85;;
77109;SDS011;66062;52.464;16.922;2023-06-22T10:23:18;12.90;;;2.40;;
77109;SDS011;66062;52.464;16.922;2023-06-22T10:25:44;4.72;;;1.90;;
77109;SDS011;66062;52.464;16.922;2023-06-22T10:28:09;3.28;;;1.90;;
77109;SDS011;66062;52.464;16.922;2023-06-22T10:30:34;4.22;;;2.13;;
77109;SDS011;66062;52.464;16.922;2023-06-22T10:33:00;10.07;;;2.60;;
77109;SDS011;66062;52.464;16.922;2023-06-22T10:35:25;4.35;;;2.25;;
77109;SDS011;66062;52.464;16.922;2023-06-22T10:37:51;5.47;;;2.15;;
77109;SDS011;66062;52.464;16.922;2023-06-22T10:40:16;2.63;;;1.67;;
77109;SDS011;66062;52.464;16.922;2023-06-22T10:42:43;3.67;;;2.00;;
77109;SDS011;66062;52.464;16.922;2023-06-22T10:45:09;3.10;;;2.30;;
77109;SDS011;66062;52.464;16.922;2023-06-22T10:47:35;3.60;;;2.67;;
77109;SDS011;66062;52.464;16.922;2023-06-22T10:50:01;3.70;;;2.25;;
77109;SDS011;66062;52.464;16.922;2023-06-22T10:54:52;3.83;;;2.22;;
77109;SDS011;66062;52.464;16.922;2023-06-22T10:57:18;4.65;;;1.88;;
77109;SDS011;66062;52.464;16.922;2023-06-22T10:59:44;5.55;;;2.05;;
77109;SDS011;66062;52.464;16.922;2023-06-22T11:02:09;3.80;;;2.10;;
77109;SDS011;66062;52.464;16.922;2023-06-22T11:04:34;3.75;;;2.17;;
77109;SDS011;66062;52.464;16.922;2023-06-22T11:09:26;2.60;;;1.75;;
77109;SDS011;66062;52.464;16.922;2023-06-22T11:14:18;5.28;;;2.20;;
77109;SDS011;66062;52.464;16.922;2023-06-22T11:16:44;4.45;;;2.50;;
77109;SDS011;66062;52.464;16.922;2023-06-22T11:19:11;2.85;;;2.03;;
77109;SDS011;66062;52.464;16.922;2023-06-22T11:24:02;7.30;;;2.53;;
77109;SDS011;66062;52.464;16.922;2023-06-22T11:28:53;2.72;;;1.95;;
77109;SDS011;66062;52.464;16.922;2023-06-22T11:31:19;5.38;;;2.20;;
77109;SDS011;66062;52.464;16.922;2023-06-22T11:36:11;4.70;;;2.53;;
77109;SDS011;66062;52.464;16.922;2023-06-22T11:41:04;3.70;;;2.47;;
77109;SDS011;66062;52.464;16.922;2023-06-22T11:43:30;5.47;;;3.95;;
77109;SDS011;66062;52.464;16.922;2023-06-22T11:45:56;6.50;;;3.15;;
77109;SDS011;66062;52.464;16.922;2023-06-22T11:48:22;3.58;;;2.20;;
77109;SDS011;66062;52.464;16.922;2023-06-22T11:50:49;10.93;;;3.28;;
77109;SDS011;66062;52.464;16.922;2023-06-22T11:53:14;6.88;;;3.13;;
77109;SDS011;66062;52.464;16.922;2023-06-22T11:55:42;5.47;;;2.95;;
77109;SDS011;66062;52.464;16.922;2023-06-22T11:58:07;3.20;;;2.50;;
77109;SDS011;66062;52.464;16.922;2023-06-22T12:00:33;6.10;;;2.22;;
77109;SDS011;66062;52.464;16.922;2023-06-22T12:02:58;3.25;;;2.42;;
77109;SDS011;66062;52.464;16.922;2023-06-22T12:05:24;3.65;;;2.80;;
77109;SDS011;66062;52.464;16.922;2023-06-22T12:07:50;4.43;;;2.53;;
77109;SDS011;66062;52.464;16.922;2023-06-22T12:10:15;3.95;;;2.55;;
77109;SDS011;66062;52.464;16.922;2023-06-22T12:12:41;5.68;;;2.50;;
77109;SDS011;66062;52.464;16.922;2023-06-22T12:15:08;3.97;;;2.40;;
77109;SDS011;66062;52.464;16.922;2023-06-22T12:17:35;4.47;;;2.95;;
77109;SDS011;66062;52.464;16.922;2023-06-22T12:20:00;4.03;;;2.70;;
77109;SDS011;66062;52.464;16.922;2023-06-22T12:22:27;3.65;;;2.63;;
77109;SDS011;66062;52.464;16.922;2023-06-22T12:24:52;3.45;;;2.42;;
77109;SDS011;66062;52.464;16.922;2023-06-22T12:27:17;3.85;;;2.58;;
77109;SDS011;66062;52.464;16.922;2023-06-22T12:29:45;3.83;;;2.25;;
77109;SDS011;66062;52.464;16.922;2023-06-22T12:32:11;4.28;;;2.45;;
77109;SDS011;66062;52.464;16.922;2023-06-22T12:34:38;4.80;;;2.03;;
77109;SDS011;66062;52.464;16.922;2023-06-22T12:37:04;6.15;;;4.00;;
77109;SDS011;66062;52.464;16.922;2023-06-22T12:39:31;4.15;;;2.72;;
77109;SDS011;66062;52.464;16.922;2023-06-22T12:41:56;4.40;;;2.20;;
77109;SDS011;66062;52.464;16.922;2023-06-22T12:44:22;9.18;;;2.30;;
77109;SDS011;66062;52.464;16.922;2023-06-22T12:46:47;3.78;;;2.67;;
77109;SDS011;66062;52.464;16.922;2023-06-22T12:49:13;4.10;;;2.55;;
77109;SDS011;66062;52.464;16.922;2023-06-22T12:51:42;3.90;;;2.28;;
77109;SDS011;66062;52.464;16.922;2023-06-22T12:54:09;4.03;;;2.42;;
77109;SDS011;66062;52.464;16.922;2023-06-22T12:56:34;5.03;;;2.30;;
77109;SDS011;66062;52.464;16.922;2023-06-22T12:59:00;4.28;;;3.05;;
77109;SDS011;66062;52.464;16.922;2023-06-22T13:01:27;3.53;;;2.17;;
77109;SDS011;66062;52.464;16.922;2023-06-22T13:06:18;5.28;;;3.40;;
77109;SDS011;66062;52.464;16.922;2023-06-22T13:08:43;4.80;;;2.20;;
77109;SDS011;66062;52.464;16.922;2023-06-22T13:11:09;6.43;;;2.55;;
77109;SDS011;66062;52.464;16.922;2023-06-22T13:13:34;4.32;;;2.35;;
77109;SDS011;66062;52.464;16.922;2023-06-22T13:16:01;3.83;;;2.20;;
77109;SDS011;66062;52.464;16.922;2023-06-22T13:18:26;7.22;;;2.63;;
77109;SDS011;66062;52.464;16.922;2023-06-22T13:20:52;3.50;;;2.17;;
77109;SDS011;66062;52.464;16.922;2023-06-22T13:23:19;5.18;;;2.83;;
77109;SDS011;66062;52.464;16.922;2023-06-22T13:25:45;3.05;;;2.35;;
77109;SDS011;66062;52.464;16.922;2023-06-22T13:28:10;5.22;;;2.60;;
77109;SDS011;66062;52.464;16.922;2023-06-22T13:30:38;4.30;;;2.33;;
77109;SDS011;66062;52.464;16.922;2023-06-22T13:33:04;5.47;;;2.53;;
77109;SDS011;66062;52.464;16.922;2023-06-22T13:35:29;4.32;;;2.70;;
77109;SDS011;66062;52.464;16.922;2023-06-22T13:37:54;4.53;;;2.70;;
77109;SDS011;66062;52.464;16.922;2023-06-22T13:40:20;3.90;;;3.42;;
77109;SDS011;66062;52.464;16.922;2023-06-22T13:42:45;3.47;;;2.55;;
77109;SDS011;66062;52.464;16.922;2023-06-22T13:45:10;4.10;;;2.70;;
77109;SDS011;66062;52.464;16.922;2023-06-22T13:47:36;4.10;;;2.78;;
77109;SDS011;66062;52.464;16.922;2023-06-22T13:50:02;4.95;;;2.50;;
77109;SDS011;66062;52.464;16.922;2023-06-22T13:54:53;4.13;;;2.70;;
77109;SDS011;66062;52.464;16.922;2023-06-22T13:57:18;5.10;;;2.42;;
77109;SDS011;66062;52.464;16.922;2023-06-22T13:59:44;6.55;;;2.70;;
77109;SDS011;66062;52.464;16.922;2023-06-22T14:02:09;4.78;;;3.15;;
77109;SDS011;66062;52.464;16.922;2023-06-22T14:04:34;3.72;;;2.85;;
77109;SDS011;66062;52.464;16.922;2023-06-22T14:07:00;5.43;;;2.60;;
77109;SDS011;66062;52.464;16.922;2023-06-22T14:09:25;9.52;;;2.72;;
77109;SDS011;66062;52.464;16.922;2023-06-22T14:11:50;6.22;;;3.08;;
77109;SDS011;66062;52.464;16.922;2023-06-22T14:14:16;4.40;;;2.67;;
77109;SDS011;66062;52.464;16.922;2023-06-22T14:16:42;5.38;;;2.97;;
77109;SDS011;66062;52.464;16.922;2023-06-22T14:19:08;5.75;;;2.50;;
77109;SDS011;66062;52.464;16.922;2023-06-22T14:21:33;4.63;;;3.45;;
77109;SDS011;66062;52.464;16.922;2023-06-22T14:23:59;4.97;;;3.05;;
77109;SDS011;66062;52.464;16.922;2023-06-22T14:26:24;5.03;;;3.22;;
77109;SDS011;66062;52.464;16.922;2023-06-22T14:28:50;4.72;;;2.80;;
77109;SDS011;66062;52.464;16.922;2023-06-22T14:31:15;2.88;;;2.10;;
77109;SDS011;66062;52.464;16.922;2023-06-22T14:33:44;4.68;;;2.22;;
77109;SDS011;66062;52.464;16.922;2023-06-22T14:36:14;5.60;;;3.25;;
77109;SDS011;66062;52.464;16.922;2023-06-22T14:38:43;4.40;;;2.78;;
77109;SDS011;66062;52.464;16.922;2023-06-22T14:41:09;4.65;;;2.85;;
77109;SDS011;66062;52.464;16.922;2023-06-22T14:43:34;4.50;;;3.17;;
77109;SDS011;66062;52.464;16.922;2023-06-22T14:46:00;5.03;;;3.15;;
77109;SDS011;66062;52.464;16.922;2023-06-22T14:48:26;6.30;;;2.85;;
77109;SDS011;66062;52.464;16.922;2023-06-22T14:50:51;4.25;;;2.88;;
77109;SDS011;66062;52.464;16.922;2023-06-22T14:53:18;4.13;;;2.92;;
77109;SDS011;66062;52.464;16.922;2023-06-22T14:55:43;6.30;;;3.00;;
77109;SDS011;66062;52.464;16.922;2023-06-22T14:58:09;3.70;;;2.88;;
77109;SDS011;66062;52.464;16.922;2023-06-22T15:00:35;8.23;;;2.92;;
77109;SDS011;66062;52.464;16.922;2023-06-22T15:03:01;4.93;;;2.83;;
77109;SDS011;66062;52.464;16.922;2023-06-22T15:05:29;9.50;;;4.53;;
77109;SDS011;66062;52.464;16.922;2023-06-22T15:07:54;5.85;;;4.00;;
77109;SDS011;66062;52.464;16.922;2023-06-22T15:10:19;4.60;;;3.17;;
77109;SDS011;66062;52.464;16.922;2023-06-22T15:12:45;4.78;;;2.85;;
77109;SDS011;66062;52.464;16.922;2023-06-22T15:15:10;4.78;;;3.22;;
77109;SDS011;66062;52.464;16.922;2023-06-22T15:17:36;3.97;;;2.58;;
77109;SDS011;66062;52.464;16.922;2023-06-22T15:20:01;4.05;;;2.95;;